createdAt,value
2022-08-27T00:00:24.511Z,99576.27
2022-08-27T00:01:26.878Z,99573.58
2022-08-27T00:02:30.772Z,99573.58
2022-08-27T00:03:33.239Z,99574.44
2022-08-27T00:04:38.125Z,99571.73
2022-08-27T00:05:41.344Z,99573.58
2022-08-27T00:06:43.802Z,99577.14
2022-08-27T00:07:48.150Z,99575.13
2022-08-27T00:08:50.628Z,99570.55
2022-08-27T00:09:53.459Z,99574.96
2022-08-27T00:10:56.033Z,99572.26
2022-08-27T00:11:58.587Z,99575.13
2022-08-27T00:13:01.155Z,99570.55
2022-08-27T00:14:03.623Z,99578.82
2022-08-27T00:15:06.786Z,99578.82
2022-08-27T00:16:12.071Z,99577.14
2022-08-27T00:17:15.224Z,99573.73
2022-08-27T00:18:22.034Z,99574.73
2022-08-27T00:19:22.282Z,99579.14
2022-08-27T00:20:26.699Z,99578.30
2022-08-27T00:21:29.146Z,99578.30
2022-08-27T00:22:31.630Z,99580.14
2022-08-27T00:23:35.421Z,99576.44
2022-08-27T00:24:38.468Z,99571.03
2022-08-27T00:25:42.135Z,99578.14
2022-08-27T00:26:44.661Z,99575.44
2022-08-27T00:27:48.467Z,99572.73
2022-08-27T00:28:51.126Z,99581.69
2022-08-27T00:29:53.489Z,99566.45
2022-08-27T00:30:56.258Z,99576.27
2022-08-27T00:31:59.214Z,99571.73
2022-08-27T00:33:02.105Z,99570.87
2022-08-27T00:34:04.478Z,99571.86
2022-08-27T00:35:09.363Z,99572.73
2022-08-27T00:36:13.705Z,99579.98
2022-08-27T00:37:16.078Z,99573.05
2022-08-27T00:38:19.766Z,99572.89
2022-08-27T00:39:22.217Z,99576.27
2022-08-27T00:40:26.356Z,99576.12
2022-08-27T00:41:28.994Z,99579.85
2022-08-27T00:42:34.544Z,99582.55
2022-08-27T00:43:49.898Z,99583.39
2022-08-27T00:44:52.363Z,99581.69
2022-08-27T00:45:57.452Z,99583.55
2022-08-27T00:47:03.848Z,99579.14
2022-08-27T00:48:06.831Z,99578.30
2022-08-27T00:49:18.858Z,99582.00
2022-08-27T00:51:56.290Z,99580.53
2022-08-27T00:53:01.909Z,99578.03
2022-08-27T00:54:05.424Z,99587.30
2022-08-27T00:55:14.191Z,99587.30
2022-08-27T00:56:20.705Z,99578.34
2022-08-27T00:57:23.177Z,99583.91
2022-08-27T00:59:41.702Z,99576.59
2022-08-27T01:00:45.063Z,99573.09
2022-08-27T01:01:47.706Z,99570.23
2022-08-27T01:02:51.148Z,99573.78
2022-08-27T01:03:56.650Z,99577.31
2022-08-27T01:05:02.220Z,99576.48
2022-08-27T01:06:05.889Z,99574.62
2022-08-27T01:07:09.503Z,99575.64
2022-08-27T01:08:14.731Z,99568.38
2022-08-27T01:09:17.205Z,99571.23
2022-08-27T01:10:22.229Z,99557.88
2022-08-27T01:11:24.789Z,99579.34
2022-08-27T01:12:27.674Z,99569.52
2022-08-27T01:13:58.769Z,99569.52
2022-08-27T01:14:37.814Z,99573.09
2022-08-27T01:15:40.178Z,99572.78
2022-08-27T01:16:46.200Z,99580.02
2022-08-27T01:17:48.799Z,99573.63
2022-08-27T01:18:51.283Z,99578.03
2022-08-27T01:19:56.699Z,99577.06
2022-08-27T01:21:10.738Z,99578.91
2022-08-27T01:22:19.946Z,99578.91
2022-08-27T01:23:33.889Z,99577.91
2022-08-27T01:24:44.908Z,99576.91
2022-08-27T01:25:49.073Z,99583.31
2022-08-27T01:26:51.619Z,99578.91
2022-08-27T01:27:56.001Z,99582.60
2022-08-27T01:28:58.294Z,99575.48
2022-08-27T01:30:01.267Z,99582.20
2022-08-27T01:31:05.001Z,99584.04
2022-08-27T01:33:23.293Z,99585.02
2022-08-27T01:34:25.671Z,99588.77
2022-08-27T01:35:28.339Z,99586.90
2022-08-27T01:36:31.518Z,99591.31
2022-08-27T01:37:33.976Z,99583.20
2022-08-27T01:38:36.509Z,99577.64
2022-08-27T01:39:39.213Z,99584.75
2022-08-27T01:40:43.419Z,99583.91
2022-08-27T01:41:47.725Z,99590.47
2022-08-27T01:42:53.067Z,99586.06
2022-08-27T01:43:55.431Z,99584.04
2022-08-27T01:45:11.620Z,99594.02
2022-08-27T01:46:24.175Z,99586.06
2022-08-27T01:47:30.992Z,99587.21
2022-08-27T01:48:32.616Z,99587.37
2022-08-27T01:49:34.981Z,99586.69
2022-08-27T01:50:38.983Z,99584.83
2022-08-27T01:53:08.610Z,99574.17
2022-08-27T01:54:11.360Z,99584.11
2022-08-27T01:55:15.581Z,99582.59
2022-08-27T01:56:18.645Z,99581.87
2022-08-27T01:57:25.274Z,99580.02
2022-08-27T01:58:27.977Z,99581.72
2022-08-27T01:59:39.502Z,99586.13
2022-08-27T02:00:39.910Z,99581.56
2022-08-27T02:01:42.672Z,99582.44
2022-08-27T02:02:45.924Z,99578.70
2022-08-27T02:03:48.110Z,99568.92
2022-08-27T02:04:50.546Z,99580.73
2022-08-27T02:05:53.832Z,99578.86
2022-08-27T02:06:57.329Z,99575.16
2022-08-27T02:07:59.764Z,99576.00
2022-08-27T02:09:02.457Z,99578.86
2022-08-27T02:10:07.175Z,99577.03
2022-08-27T02:11:12.192Z,99574.33
2022-08-27T02:12:15.269Z,99569.08
2022-08-27T02:13:17.634Z,99576.16
2022-08-27T02:14:19.993Z,99569.08
2022-08-27T02:15:22.867Z,99570.75
2022-08-27T02:16:27.518Z,99576.16
2022-08-27T02:17:29.844Z,99574.33
2022-08-27T02:18:32.155Z,99565.34
2022-08-27T02:19:35.085Z,99570.91
2022-08-27T02:20:37.751Z,99571.06
2022-08-27T02:21:40.218Z,99569.36
2022-08-27T02:22:55.639Z,99577.62
2022-08-27T02:23:58.044Z,99575.95
2022-08-27T02:25:00.509Z,99577.78
2022-08-27T02:26:02.976Z,99574.23
2022-08-27T02:27:05.346Z,99571.53
2022-08-27T02:28:08.316Z,99572.53
2022-08-27T02:29:10.785Z,99573.38
2022-08-27T02:30:16.462Z,99575.39
2022-08-27T02:31:20.181Z,99570.98
2022-08-27T02:32:31.867Z,99565.89
2022-08-27T02:33:27.095Z,99575.70
2022-08-27T02:34:30.010Z,99566.20
2022-08-27T02:35:34.781Z,99567.35
2022-08-27T02:36:37.548Z,99571.05
2022-08-27T02:37:40.839Z,99560.23
2022-08-27T02:38:43.197Z,99563.81
2022-08-27T02:39:46.379Z,99570.05
2022-08-27T02:40:49.047Z,99565.48
2022-08-27T02:41:53.258Z,99567.20
2022-08-27T02:42:56.653Z,99566.05
2022-08-27T02:43:59.004Z,99566.20
2022-08-27T02:45:04.700Z,99569.73
2022-08-27T02:46:08.916Z,99567.75
2022-08-27T02:47:11.310Z,99573.69
2022-08-27T02:48:13.681Z,99567.13
2022-08-27T02:49:16.650Z,99569.67
2022-08-27T02:50:20.150Z,99567.84
2022-08-27T02:51:23.532Z,99566.97
2022-08-27T02:52:27.535Z,99562.44
2022-08-27T02:53:30.017Z,99565.82
2022-08-27T02:54:32.251Z,99567.53
2022-08-27T02:55:35.443Z,99569.20
2022-08-27T02:56:40.465Z,99574.61
2022-08-27T02:57:42.900Z,99566.50
2022-08-27T02:58:46.722Z,99570.23
2022-08-27T02:59:52.140Z,99560.41
2022-08-27T03:00:55.024Z,99564.27
2022-08-27T03:01:57.596Z,99568.84
2022-08-27T03:03:00.523Z,99563.74
2022-08-27T03:04:03.743Z,99567.59
2022-08-27T03:05:07.852Z,99565.05
2022-08-27T03:06:11.337Z,99564.34
2022-08-27T03:07:18.667Z,99563.66
2022-08-27T03:08:17.907Z,99562.62
2022-08-27T03:09:20.885Z,99551.61
2022-08-27T03:10:24.368Z,99551.61
2022-08-27T03:11:26.939Z,99559.09
2022-08-27T03:12:29.299Z,99559.09
2022-08-27T03:13:31.767Z,99559.77
2022-08-27T03:14:34.160Z,99556.94
2022-08-27T03:15:36.551Z,99555.77
2022-08-27T03:16:39.171Z,99553.77
2022-08-27T03:17:41.728Z,99560.89
2022-08-27T03:18:44.101Z,99559.02
2022-08-27T03:19:46.868Z,99553.62
2022-08-27T03:20:53.623Z,99561.56
2022-08-27T03:21:55.986Z,99565.27
2022-08-27T03:22:59.370Z,99567.13
2022-08-27T03:24:11.643Z,99560.89
2022-08-27T03:25:08.399Z,99561.05
2022-08-27T03:26:12.042Z,99561.32
2022-08-27T03:27:14.424Z,99554.67
2022-08-27T03:28:20.625Z,99557.53
2022-08-27T03:29:22.973Z,99550.58
2022-08-27T03:30:26.053Z,99551.61
2022-08-27T03:31:28.519Z,99554.16
2022-08-27T03:32:30.821Z,99549.59
2022-08-27T03:33:35.389Z,99550.73
2022-08-27T03:34:38.980Z,99559.00
2022-08-27T03:35:41.546Z,99556.45
2022-08-27T03:36:44.011Z,99559.99
2022-08-27T03:37:48.515Z,99557.29
2022-08-27T03:38:51.491Z,99559.16
2022-08-27T03:39:54.222Z,99558.31
2022-08-27T03:40:57.151Z,99559.16
2022-08-27T03:42:00.020Z,99551.36
2022-08-27T03:43:02.490Z,99553.34
2022-08-27T03:44:05.965Z,99554.50
2022-08-27T03:45:09.146Z,99562.47
2022-08-27T03:46:12.180Z,99555.37
2022-08-27T03:47:15.095Z,99553.50
2022-08-27T03:48:17.667Z,99558.06
2022-08-27T03:49:21.334Z,99560.05
2022-08-27T03:50:24.234Z,99549.41
2022-08-27T03:51:28.488Z,99555.11
2022-08-27T03:52:32.133Z,99552.53
2022-08-27T03:53:35.857Z,99547.29
2022-08-27T03:54:38.291Z,99550.83
2022-08-27T03:55:40.863Z,99542.72
2022-08-27T03:56:43.330Z,99550.70
2022-08-27T03:57:45.683Z,99548.88
2022-08-27T03:58:48.150Z,99542.45
2022-08-27T03:59:54.357Z,99543.47
2022-08-27T04:00:55.125Z,99544.16
2022-08-27T04:01:57.698Z,99539.75
2022-08-27T04:03:01.127Z,99542.60
2022-08-27T04:04:03.746Z,99544.44
2022-08-27T04:05:06.838Z,99544.44
2022-08-27T04:06:11.746Z,99548.00
2022-08-27T04:07:14.314Z,99546.30
2022-08-27T04:08:17.087Z,99541.73
2022-08-27T04:09:20.677Z,99548.00
2022-08-27T04:10:24.071Z,99540.89
2022-08-27T04:11:27.859Z,99544.74
2022-08-27T04:12:31.500Z,99541.17
2022-08-27T04:13:34.014Z,99544.74
2022-08-27T04:14:37.196Z,99538.47
2022-08-27T04:15:47.081Z,99540.33
2022-08-27T04:16:50.931Z,99543.03
2022-08-27T04:17:55.656Z,99533.23
2022-08-27T04:18:58.117Z,99542.05
2022-08-27T04:20:05.361Z,99537.63
2022-08-27T04:21:09.193Z,99545.73
2022-08-27T04:22:12.163Z,99544.03
2022-08-27T04:23:15.858Z,99538.63
2022-08-27T04:24:18.935Z,99537.78
2022-08-27T04:25:21.299Z,99536.92
2022-08-27T04:26:25.268Z,99541.48
2022-08-27T04:27:27.977Z,99537.78
2022-08-27T04:28:34.134Z,99538.09
2022-08-27T04:29:35.356Z,99534.52
2022-08-27T04:31:52.565Z,99536.23
2022-08-27T04:32:55.121Z,99535.59
2022-08-27T04:33:57.601Z,99538.92
2022-08-27T04:35:00.079Z,99537.52
2022-08-27T04:36:06.010Z,99534.84
2022-08-27T04:37:08.785Z,99527.63
2022-08-27T04:38:14.216Z,99536.42
2022-08-27T04:39:17.428Z,99534.13
2022-08-27T04:40:20.149Z,99529.47
2022-08-27T04:41:22.740Z,99538.08
2022-08-27T04:42:25.403Z,99529.70
2022-08-27T04:43:28.075Z,99533.36
2022-08-27T04:44:31.464Z,99534.73
2022-08-27T04:45:33.723Z,99529.43
2022-08-27T04:46:38.832Z,99533.27
2022-08-27T04:47:41.210Z,99524.78
2022-08-27T04:48:44.433Z,99526.38
2022-08-27T04:49:47.472Z,99532.48
2022-08-27T04:50:50.852Z,99523.87
2022-08-27T04:51:53.528Z,99526.31
2022-08-27T04:52:55.884Z,99516.19
2022-08-27T04:54:01.111Z,99526.94
2022-08-27T04:55:04.398Z,99525.64
2022-08-27T04:56:07.480Z,99523.23
2022-08-27T04:57:11.689Z,99525.23
2022-08-27T04:58:15.274Z,99520.80
2022-08-27T04:59:17.838Z,99526.70
2022-08-27T05:00:21.739Z,99532.23
2022-08-27T05:01:26.920Z,99530.13
2022-08-27T05:02:29.637Z,99521.25
2022-08-27T05:03:32.133Z,99525.64
2022-08-27T05:04:36.309Z,99526.26
2022-08-27T05:05:42.699Z,99534.10
2022-08-27T05:06:44.205Z,99532.99
2022-08-27T05:07:47.693Z,99530.16
2022-08-27T05:08:52.727Z,99535.41
2022-08-27T05:09:55.488Z,99530.89
2022-08-27T05:10:58.528Z,99536.13
2022-08-27T05:12:01.237Z,99536.99
2022-08-27T05:13:03.608Z,99536.44
2022-08-27T05:14:07.501Z,99535.16
2022-08-27T05:15:11.090Z,99541.81
2022-08-27T05:16:16.554Z,99541.07
2022-08-27T05:17:19.813Z,99544.20
2022-08-27T05:18:22.237Z,99542.07
2022-08-27T05:19:24.634Z,99538.92
2022-08-27T05:20:28.022Z,99543.72
2022-08-27T05:21:33.661Z,99536.89
2022-08-27T05:22:36.840Z,99538.30
2022-08-27T05:23:39.199Z,99542.28
2022-08-27T05:24:45.019Z,99540.99
2022-08-27T05:25:47.896Z,99545.40
2022-08-27T05:26:51.112Z,99546.27
2022-08-27T05:27:53.460Z,99532.21
2022-08-27T05:28:58.294Z,99542.70
2022-08-27T05:30:01.578Z,99542.70
2022-08-27T05:31:06.345Z,99534.16
2022-08-27T05:32:09.053Z,99537.27
2022-08-27T05:33:13.877Z,99533.42
2022-08-27T05:34:18.915Z,99532.97
2022-08-27T05:35:21.989Z,99530.98
2022-08-27T05:36:27.369Z,99537.07
2022-08-27T05:37:29.686Z,99531.40
2022-08-27T05:38:33.767Z,99539.50
2022-08-27T05:39:36.136Z,99531.09
2022-08-27T05:40:39.109Z,99531.62
2022-08-27T05:41:41.373Z,99530.63
2022-08-27T05:42:43.834Z,99532.34
2022-08-27T05:43:50.482Z,99524.39
2022-08-27T05:44:52.555Z,99530.48
2022-08-27T05:45:56.060Z,99527.47
2022-08-27T05:46:59.741Z,99524.65
2022-08-27T05:48:03.022Z,99527.20
2022-08-27T05:49:05.487Z,99531.57
2022-08-27T05:50:08.564Z,99530.73
2022-08-27T05:51:25.311Z,99529.02
2022-08-27T05:52:22.604Z,99526.33
2022-08-27T05:53:24.966Z,99530.89
2022-08-27T05:54:27.228Z,99523.34
2022-08-27T05:55:30.713Z,99532.81
2022-08-27T05:56:35.752Z,99532.54
2022-08-27T05:57:39.433Z,99526.83
2022-08-27T05:58:43.342Z,99531.23
2022-08-27T05:59:45.795Z,99532.08
2022-08-27T06:00:48.789Z,99532.08
2022-08-27T06:01:53.800Z,99527.52
2022-08-27T06:02:56.326Z,99528.53
2022-08-27T06:03:58.639Z,99523.30
2022-08-27T06:05:01.418Z,99522.58
2022-08-27T06:06:06.520Z,99523.57
2022-08-27T06:07:09.088Z,99525.59
2022-08-27T06:08:12.114Z,99526.73
2022-08-27T06:09:17.807Z,99532.13
2022-08-27T06:10:21.803Z,99520.19
2022-08-27T06:11:24.064Z,99502.43
2022-08-27T06:12:27.136Z,99502.43
2022-08-27T06:13:31.865Z,99512.73
2022-08-27T06:14:35.653Z,99517.86
2022-08-27T06:15:38.107Z,99526.48
2022-08-27T06:16:40.995Z,99524.50
2022-08-27T06:17:43.972Z,99522.48
2022-08-27T06:18:47.394Z,99531.30
2022-08-27T06:19:49.923Z,99529.44
2022-08-27T06:20:52.399Z,99532.81
2022-08-27T06:22:00.761Z,99526.42
2022-08-27T06:22:59.263Z,99524.44
2022-08-27T06:24:02.238Z,99532.38
2022-08-27T06:25:05.932Z,99528.81
2022-08-27T06:26:11.774Z,99534.92
2022-08-27T06:27:16.290Z,99530.36
2022-08-27T06:28:22.449Z,99524.12
2022-08-27T06:29:25.110Z,99531.23
2022-08-27T06:30:27.891Z,99530.36
2022-08-27T06:31:32.560Z,99522.97
2022-08-27T06:32:35.037Z,99517.56
2022-08-27T06:33:37.835Z,99522.09
2022-08-27T06:34:40.198Z,99517.41
2022-08-27T06:35:42.560Z,99519.80
2022-08-27T06:36:45.834Z,99525.04
2022-08-27T06:37:48.714Z,99525.04
2022-08-27T06:38:51.281Z,99532.16
2022-08-27T06:39:54.821Z,99531.16
2022-08-27T06:40:57.706Z,99528.45
2022-08-27T06:42:01.749Z,99518.48
2022-08-27T06:43:07.848Z,99524.60
2022-08-27T06:44:10.572Z,99516.49
2022-08-27T06:45:13.179Z,99526.44
2022-08-27T06:46:17.384Z,99516.49
2022-08-27T06:47:20.329Z,99510.22
2022-08-27T06:48:24.419Z,99515.63
2022-08-27T06:49:27.073Z,99519.32
2022-08-27T06:50:32.215Z,99507.84
2022-08-27T06:51:35.395Z,99499.33
2022-08-27T06:52:37.654Z,99513.39
2022-08-27T06:53:40.945Z,99516.26
2022-08-27T06:54:43.915Z,99513.55
2022-08-27T06:55:48.326Z,99515.23
2022-08-27T06:56:50.893Z,99511.38
2022-08-27T06:57:53.284Z,99514.08
2022-08-27T06:58:56.846Z,99517.09
2022-08-27T06:59:59.964Z,99505.61
2022-08-27T07:01:02.588Z,99510.30
2022-08-27T07:02:05.060Z,99502.91
2022-08-27T07:03:08.239Z,99503.73
2022-08-27T07:04:13.531Z,99507.28
2022-08-27T07:05:16.445Z,99515.23
2022-08-27T07:06:19.216Z,99505.29
2022-08-27T07:07:32.579Z,99507.00
2022-08-27T07:08:26.001Z,99504.13
2022-08-27T07:09:28.476Z,99509.70
2022-08-27T07:10:31.833Z,99504.42
2022-08-27T07:11:34.097Z,99498.18
2022-08-27T07:12:37.585Z,99506.28
2022-08-27T07:13:40.889Z,99492.09
2022-08-27T07:14:43.538Z,99494.40
2022-08-27T07:15:47.074Z,99503.81
2022-08-27T07:16:52.976Z,99501.27
2022-08-27T07:17:55.540Z,99501.03
2022-08-27T07:19:04.017Z,99502.27
2022-08-27T07:20:07.638Z,99500.52
2022-08-27T07:21:11.443Z,99503.43
2022-08-27T07:22:13.936Z,99498.38
2022-08-27T07:23:16.367Z,99500.25
2022-08-27T07:24:18.826Z,99504.93
2022-08-27T07:25:21.290Z,99507.20
2022-08-27T07:26:25.085Z,99505.64
2022-08-27T07:27:27.455Z,99516.55
2022-08-27T07:28:31.041Z,99514.23
2022-08-27T07:29:33.815Z,99511.94
2022-08-27T07:30:37.209Z,99520.45
2022-08-27T07:31:41.097Z,99519.15
2022-08-27T07:32:44.418Z,99518.53
2022-08-27T07:33:52.508Z,99519.09
2022-08-27T07:34:52.581Z,99522.33
2022-08-27T07:35:54.845Z,99522.02
2022-08-27T07:37:00.326Z,99522.58
2022-08-27T07:38:02.742Z,99524.12
2022-08-27T07:39:05.713Z,99521.27
2022-08-27T07:41:23.447Z,99520.62
2022-08-27T07:42:29.085Z,99514.29
2022-08-27T07:43:31.901Z,99516.00
2022-08-27T07:44:35.311Z,99517.55
2022-08-27T07:45:46.434Z,99509.28
2022-08-27T07:46:49.643Z,99516.23
2022-08-27T07:47:52.670Z,99513.54
2022-08-27T07:48:55.138Z,99516.92
2022-08-27T07:49:57.933Z,99510.52
2022-08-27T07:51:03.308Z,99496.02
2022-08-27T07:52:05.821Z,99499.41
2022-08-27T07:53:08.684Z,99508.06
2022-08-27T07:54:11.141Z,99506.91
2022-08-27T07:55:14.137Z,99504.89
2022-08-27T07:56:18.326Z,99507.44
2022-08-27T07:57:20.690Z,99499.33
2022-08-27T07:58:23.675Z,99511.84
2022-08-27T07:59:26.646Z,99504.58
2022-08-27T08:00:30.124Z,99513.39
2022-08-27T08:01:32.981Z,99507.84
2022-08-27T08:02:36.596Z,99511.38
2022-08-27T08:03:39.996Z,99508.52
2022-08-27T08:04:42.531Z,99506.52
2022-08-27T08:05:45.400Z,99513.63
2022-08-27T08:06:48.296Z,99514.47
2022-08-27T08:07:51.404Z,99509.75
2022-08-27T08:08:53.920Z,99515.86
2022-08-27T08:09:58.459Z,99507.59
2022-08-27T08:11:01.341Z,99512.00
2022-08-27T08:12:04.417Z,99514.70
2022-08-27T08:13:06.984Z,99507.28
2022-08-27T08:14:09.346Z,99507.28
2022-08-27T08:15:12.425Z,99509.14
2022-08-27T08:16:15.610Z,99503.89
2022-08-27T08:17:18.933Z,99502.19
2022-08-27T08:18:21.461Z,99504.05
2022-08-27T08:19:23.703Z,99503.89
2022-08-27T08:20:41.476Z,99501.03
2022-08-27T08:21:31.599Z,99496.31
2022-08-27T08:22:34.378Z,99499.17
2022-08-27T08:23:38.168Z,99498.33
2022-08-27T08:24:40.944Z,99495.63
2022-08-27T08:25:57.223Z,99490.22
2022-08-27T08:27:02.774Z,99491.22
2022-08-27T08:28:05.033Z,99499.33
2022-08-27T08:29:07.491Z,99492.09
2022-08-27T08:30:11.185Z,99493.77
2022-08-27T08:31:13.501Z,99489.39
2022-08-27T08:32:15.806Z,99488.67
2022-08-27T08:33:18.290Z,99494.08
2022-08-27T08:34:20.740Z,99488.52
2022-08-27T08:35:24.479Z,99490.38
2022-08-27T08:36:27.103Z,99489.67
2022-08-27T08:37:30.394Z,99484.27
2022-08-27T08:38:33.263Z,99489.67
2022-08-27T08:39:36.440Z,99488.99
2022-08-27T08:42:01.026Z,99484.17
2022-08-27T08:43:04.619Z,99485.14
2022-08-27T08:44:31.761Z,99481.72
2022-08-27T08:45:34.532Z,99488.28
2022-08-27T08:46:42.216Z,99478.50
2022-08-27T08:47:53.696Z,99477.63
2022-08-27T08:48:59.536Z,99477.47
2022-08-27T08:50:16.835Z,99472.06
2022-08-27T08:51:27.097Z,99474.77
2022-08-27T08:52:35.913Z,99478.19
2022-08-27T08:53:51.596Z,99474.33
2022-08-27T08:54:56.364Z,99485.81
2022-08-27T08:56:01.323Z,99482.43
2022-08-27T08:58:53.969Z,99484.56
2022-08-27T09:00:01.152Z,99477.55
2022-08-27T09:01:05.117Z,99481.05
2022-08-27T09:03:22.404Z,99477.31
2022-08-27T09:04:28.422Z,99481.73
2022-08-27T09:05:31.186Z,99481.73
2022-08-27T09:06:42.664Z,99483.91
2022-08-27T09:08:31.830Z,99485.73
2022-08-27T09:09:35.002Z,99483.91
2022-08-27T09:10:50.063Z,99484.43
2022-08-27T09:13:20.071Z,99487.45
2022-08-27T09:14:27.801Z,99487.38
2022-08-27T09:15:32.733Z,99484.51
2022-08-27T09:16:36.622Z,99479.81
2022-08-27T09:17:40.640Z,99483.20
2022-08-27T09:18:44.386Z,99479.50
2022-08-27T09:19:52.339Z,99481.48
2022-08-27T09:21:14.609Z,99483.36
2022-08-27T09:23:57.206Z,99477.55
2022-08-27T09:25:27.127Z,99477.47
2022-08-27T09:26:33.478Z,99481.72
2022-08-27T09:27:40.352Z,99478.86
2022-08-27T09:28:43.833Z,99483.42
2022-08-27T09:29:53.673Z,99469.20
2022-08-27T09:30:59.433Z,99473.09
2022-08-27T09:32:08.969Z,99478.50
2022-08-27T09:33:11.281Z,99477.63
2022-08-27T09:34:13.878Z,99469.36
2022-08-27T09:35:16.745Z,99482.43
2022-08-27T09:36:23.558Z,99482.43
2022-08-27T09:37:34.174Z,99474.00
2022-08-27T09:38:32.131Z,99476.55
2022-08-27T09:39:49.888Z,99468.28
2022-08-27T09:40:52.987Z,99470.98
2022-08-27T09:41:55.594Z,99476.23
2022-08-27T09:43:07.484Z,99475.23
2022-08-27T09:44:12.654Z,99475.08
2022-08-27T09:46:29.305Z,99482.52
2022-08-27T09:47:46.562Z,99478.16
2022-08-27T09:48:50.016Z,99487.98
2022-08-27T09:51:21.842Z,99484.89
2022-08-27T09:52:31.200Z,99481.41
2022-08-27T09:53:48.305Z,99487.85
2022-08-27T09:54:53.330Z,99481.41
2022-08-27T09:56:00.523Z,99479.58
2022-08-27T09:57:05.632Z,99476.88
2022-08-27T09:59:34.593Z,99475.78
2022-08-27T10:00:40.142Z,99475.01
2022-08-27T10:01:56.247Z,99474.85
2022-08-27T10:02:59.431Z,99470.16
2022-08-27T10:05:28.310Z,99480.55
2022-08-27T10:06:31.710Z,99470.66
2022-08-27T10:07:53.221Z,99472.38
2022-08-27T10:09:27.227Z,99479.64
2022-08-27T10:10:56.017Z,99475.08
2022-08-27T10:13:29.146Z,99471.27
2022-08-27T10:14:34.429Z,99478.78
2022-08-27T10:16:57.625Z,99468.02
2022-08-27T10:18:03.114Z,99471.83
2022-08-27T10:19:36.194Z,99468.28
2022-08-27T10:21:05.821Z,99459.17
2022-08-27T10:22:41.044Z,99465.26
2022-08-27T10:23:53.733Z,99474.40
2022-08-27T10:25:16.678Z,99467.13
2022-08-27T10:27:44.833Z,99470.73
2022-08-27T10:28:57.045Z,99469.12
2022-08-27T10:30:07.824Z,99471.83
2022-08-27T10:31:28.574Z,99470.98
2022-08-27T10:32:37.717Z,99467.45
2022-08-27T10:34:05.271Z,99468.28
2022-08-27T10:37:09.487Z,99471.44
2022-08-27T10:38:33.357Z,99468.83
2022-08-27T10:39:48.524Z,99463.42
2022-08-27T10:41:03.474Z,99462.55
2022-08-27T10:42:25.495Z,99465.26
2022-08-27T10:43:43.629Z,99464.42
2022-08-27T10:45:03.193Z,99475.23
2022-08-27T10:46:38.736Z,99467.13
2022-08-27T10:48:01.474Z,99464.42
2022-08-27T10:49:23.397Z,99468.98
2022-08-27T10:50:31.795Z,99466.42
2022-08-27T10:51:46.959Z,99461.17
2022-08-27T10:52:53.211Z,99462.20
2022-08-27T10:54:03.256Z,99470.31
2022-08-27T10:55:15.344Z,99460.34
2022-08-27T10:56:33.351Z,99466.58
2022-08-27T10:58:13.458Z,99469.28
2022-08-27T10:59:39.547Z,99476.39
2022-08-27T11:01:05.031Z,99468.28
2022-08-27T11:02:28.775Z,99474.53
2022-08-27T11:03:35.058Z,99471.83
2022-08-27T11:04:40.664Z,99475.56
2022-08-27T11:05:47.232Z,99473.85
2022-08-27T11:08:44.503Z,99470.21
2022-08-27T11:10:00.305Z,99473.02
2022-08-27T11:11:51.379Z,99475.87
2022-08-27T11:12:17.111Z,99470.31
2022-08-27T11:13:36.713Z,99471.15
2022-08-27T11:14:52.342Z,99467.45
2022-08-27T11:15:54.701Z,99472.86
2022-08-27T11:17:08.083Z,99471.98
2022-08-27T11:18:20.005Z,99466.42
2022-08-27T11:19:29.335Z,99470.98
2022-08-27T11:20:45.432Z,99471.70
2022-08-27T11:22:00.697Z,99466.29
2022-08-27T11:23:06.318Z,99464.42
2022-08-27T11:26:02.778Z,99465.16
2022-08-27T11:27:06.686Z,99459.85
2022-08-27T11:28:10.135Z,99459.85
2022-08-27T11:29:26.534Z,99462.55
2022-08-27T11:31:01.352Z,99460.72
2022-08-27T11:32:31.101Z,99457.86
2022-08-27T11:33:46.402Z,99461.39
2022-08-27T11:34:55.241Z,99461.39
2022-08-27T11:36:33.322Z,99463.94
2022-08-27T11:37:59.156Z,99459.56
2022-08-27T11:39:21.894Z,99457.86
2022-08-27T11:40:34.342Z,99459.56
2022-08-27T11:42:09.727Z,99463.27
2022-08-27T11:44:27.241Z,99454.17
2022-08-27T11:45:31.882Z,99458.85
2022-08-27T11:46:44.588Z,99456.15
2022-08-27T11:47:53.098Z,99452.61
2022-08-27T11:50:30.560Z,99446.77
2022-08-27T11:51:34.878Z,99453.98
2022-08-27T11:52:40.427Z,99453.98
2022-08-27T11:53:57.928Z,99452.95
2022-08-27T11:55:22.719Z,99453.66
2022-08-27T11:56:33.273Z,99459.91
2022-08-27T11:57:36.247Z,99459.75
2022-08-27T11:58:52.578Z,99455.20
2022-08-27T11:59:43.984Z,99448.77
2022-08-27T12:00:47.231Z,99453.18
2022-08-27T12:01:50.667Z,99451.34
2022-08-27T12:03:02.858Z,99451.18
2022-08-27T12:04:27.564Z,99452.85
2022-08-27T12:05:51.356Z,99453.72
2022-08-27T12:07:05.795Z,99451.85
2022-08-27T12:08:23.732Z,99452.72
2022-08-27T12:09:26.981Z,99450.02
2022-08-27T12:10:33.980Z,99442.91
2022-08-27T12:12:56.909Z,99444.33
2022-08-27T12:14:24.075Z,99433.79
2022-08-27T12:15:40.773Z,99440.88
2022-08-27T12:16:56.141Z,99438.16
2022-08-27T12:19:35.268Z,99435.19
2022-08-27T12:20:47.998Z,99436.33
2022-08-27T12:22:20.239Z,99434.63
2022-08-27T12:24:55.714Z,99429.94
2022-08-27T12:26:00.360Z,99423.97
2022-08-27T12:27:26.317Z,99427.67
2022-08-27T12:28:28.780Z,99424.14
2022-08-27T12:29:52.952Z,99424.97
2022-08-27T12:30:55.521Z,99424.97
2022-08-27T12:32:14.116Z,99425.97
2022-08-27T12:33:33.420Z,99415.16
2022-08-27T12:34:42.437Z,99425.97
2022-08-27T12:35:50.843Z,99427.00
2022-08-27T12:36:54.022Z,99432.41
2022-08-27T12:38:16.140Z,99425.13
2022-08-27T12:39:23.429Z,99418.02
2022-08-27T12:40:32.562Z,99424.30
2022-08-27T12:41:43.865Z,99415.31
2022-08-27T12:42:40.038Z,99409.91
2022-08-27T12:43:42.415Z,99408.20
2022-08-27T12:44:44.660Z,99414.48
2022-08-27T12:45:49.478Z,99419.89
2022-08-27T12:46:55.184Z,99418.89
2022-08-27T12:47:58.397Z,99415.31
2022-08-27T12:49:02.747Z,99415.31
2022-08-27T12:50:07.763Z,99413.31
2022-08-27T12:51:28.839Z,99420.56
2022-08-27T12:53:00.995Z,99416.86
2022-08-27T12:54:29.056Z,99415.86
2022-08-27T12:55:55.198Z,99416.69
2022-08-27T12:58:34.708Z,99398.64
2022-08-27T12:59:49.890Z,99401.63
2022-08-27T13:01:00.144Z,99400.95
2022-08-27T13:02:15.164Z,99400.09
2022-08-27T13:03:37.716Z,99401.95
2022-08-27T13:04:43.053Z,99394.68
2022-08-27T13:05:48.839Z,99391.14
2022-08-27T13:06:51.362Z,99396.55
2022-08-27T13:07:56.617Z,99385.73
2022-08-27T13:09:01.004Z,99395.71
2022-08-27T13:10:12.472Z,99397.39
2022-08-27T13:11:21.605Z,99398.25
2022-08-27T13:12:24.263Z,99398.09
2022-08-27T13:13:27.139Z,99402.66
2022-08-27T13:14:38.509Z,99407.04
2022-08-27T13:15:56.507Z,99407.91
2022-08-27T13:18:14.464Z,99403.92
2022-08-27T13:19:25.648Z,99402.34
2022-08-27T13:20:28.306Z,99414.86
2022-08-27T13:21:30.795Z,99407.58
2022-08-27T13:22:38.988Z,99404.71
2022-08-27T13:23:45.354Z,99405.38
2022-08-27T13:24:49.586Z,99408.79
2022-08-27T13:26:02.649Z,99413.20
2022-08-27T13:27:06.290Z,99407.79
2022-08-27T13:28:13.520Z,99407.63
2022-08-27T13:29:16.494Z,99418.28
2022-08-27T13:30:35.068Z,99412.88
2022-08-27T13:31:24.626Z,99407.46
2022-08-27T13:32:27.172Z,99410.00
2022-08-27T13:33:32.700Z,99403.75
2022-08-27T13:34:38.961Z,99410.00
2022-08-27T13:35:43.025Z,99405.43
2022-08-27T13:36:57.710Z,99404.43